Kadena Air Base
RODN : now visible

Airfield :











YOU CAN JOIN US ON...

 
LOGIN :

Register | Disclaimer

   EN    FR    IT 

 









Legend :    VFR   Marginal VFR   IFR   Intensive IFR   Very Intensive IFR
Visi :
Ceiling :
>= 8 km
>= 3000ft
5 to 8 km
1000 to 3000 ft
1500m to 5 km
500 to 1000 ft
800 to 1500m
200 to 500 ft
< 800m
< 200 ft
Symbols :   Thunderstorms  Fog  Heavy snow  Heavy precipitations  Wind > 20 kt







- Airport Elevation : 143 ft
- IATA code : DNA


RODN - Kadena Air Base

CURRENT METAR :
  • 201056Z AUTO 05004KT 8SM -DZ SCT015 21/20 A3014 RMK AO2 DZB23E26RAB26E38DZB38E41DZB46 SLP213 P0000 T02080198 $

EXPIRED METARs :
  • 201041Z AUTO 06005KT 3SM BR SCT015 BKN033 21/20 A3014 RMK AO2 DZB23E26RAB26E38DZB38E41 SLP213 $
  • 201023Z AUTO 06005KT 10SM -DZ SCT033 SCT090 21/20 A3014 RMK AO2 DZB23 SLP213 $
  • 200956Z AUTO 08004KT 10SM FEW023 SCT090 21/20 A3013 RMK AO2 RAE00DZB00E08DZB10E26 SLP210 P0001 T02090197 $
  • 200926Z AUTO 08004KT 8SM CLR 21/20 A3012 RMK AO2 RAE00DZB00E08DZB10E26 SLP206 $
  • 200910Z AUTO 06006KT 7SM -DZ SCT009 SCT021 21/20 A3012 RMK AO2 RAE00DZB00E08DZB10 SLP206 $
  • 200858Z AUTO 05006KT 1 1/8SM -RA BR BKN009 21/20 A3012 RMK AO2 VIS 7/8V1 5/8 CIG 006V011 SLP206 $
  • 200856Z AUTO 05006KT 1SM R23/4500VP6000FT -RA BR BKN009 21/20 A3012 RMK AO2 VIS 7/8V2 DZB24E25RAB25 CIG 006V011 BKN V SCT SLP206 P0005 60012 T02090195 55002 $
  • 200844Z AUTO 06006KT 2 1/4SM +RA BR FEW007 SCT011 SCT031 21/20 A3012 RMK AO2 VIS 2 1/4V8 DZB24E25RAB25 SLP206 $
  • 200824Z AUTO 06006KT 10SM -DZ FEW007 SCT011 BKN031 22/20 A3012 RMK AO2 DZB24 SLP206 $
  • 200816Z AUTO 06008KT 10SM BKN008 22/20 A3012 RMK AO2 CIG 008V010 SLP206 $
  • 200806Z AUTO 05007KT 10SM BKN010 BKN020 22/20 A3012 RMK AO2 CIG 008V010 SLP206 $
  • 200756Z AUTO 06007KT 10SM BKN008 BKN020 22/20 A3012 RMK AO2 RAE04DZB04E12DZB16E34 CIG 008V021 SLP206 P0000 T02190202 $

TAF AMD TAF RODN
Valid from the 20 at 09:00 until the 21 at 14:00 UTC


200941Z 2009/2114 05012KT 9999 SCT008 OVC025 QNH3010INS
TEMPO 2009/2011 8000 -SHRA BKN018
BECMG 2022/2023 07012KT 8000 -SHRA BKN006 OVC012 QNH3009INS
BECMG 2108/2109 VRB06KT 9999 NSW SCT015 BKN025 QNH3005INS TX21/2009Z TN19/2015Z
RJJJ FIR / Asia



MET'MAP, your aeronautical weather chart ! - Copyright ORBIFLY December 2007 - Disclaimer

ORBIFLY MET'MAP TEAM :

Programming & Development : Alexandra Zaïnal
Concept & Development : Baudouin d'Aumeries
Co-Development & Prog : Marc-Olivier Méhu
Technical & hardware support : Manuel Goepfert

Contact : metmap@orbifly.com




SOURCES & CREDITS :

   NOAA       Earth
Advisory